createdAt,value
2018-12-16T00:06:43.067Z,1.20
2018-12-16T00:16:45.570Z,1.20
2018-12-16T00:26:59.902Z,1.30
2018-12-16T00:37:02.425Z,1.40
2018-12-16T00:47:04.887Z,1.40
2018-12-16T00:57:07.388Z,1.40
2018-12-16T01:07:09.880Z,1.40
2018-12-16T01:17:12.379Z,1.50
2018-12-16T01:27:14.888Z,1.40
2018-12-16T01:37:17.356Z,1.50
2018-12-16T01:47:19.817Z,1.50
2018-12-16T01:57:22.359Z,1.60
2018-12-16T02:07:24.821Z,1.60
2018-12-16T02:17:27.283Z,1.60
2018-12-16T02:27:29.751Z,1.70
2018-12-16T02:37:32.214Z,1.70
2018-12-16T02:47:34.672Z,1.70
2018-12-16T02:57:37.153Z,1.70
2018-12-16T03:07:39.644Z,1.70
2018-12-16T03:17:42.140Z,1.70
2018-12-16T03:27:44.610Z,1.70
2018-12-16T03:37:47.699Z,1.70
2018-12-16T03:47:50.159Z,1.70
2018-12-16T03:57:52.658Z,1.60
2018-12-16T04:07:55.115Z,1.60
2018-12-16T04:17:57.615Z,1.60
2018-12-16T04:28:00.119Z,1.50
2018-12-16T04:38:02.575Z,1.50
2018-12-16T04:48:05.079Z,1.60
2018-12-16T04:58:07.540Z,1.60
2018-12-16T05:08:10.132Z,1.50
2018-12-16T05:18:12.599Z,1.60
2018-12-16T05:28:15.119Z,1.60
2018-12-16T05:38:17.600Z,1.60
2018-12-16T05:48:20.092Z,1.60
2018-12-16T05:58:22.671Z,1.60
2018-12-16T06:08:25.122Z,1.70
2018-12-16T06:18:27.700Z,1.70
2018-12-16T06:28:30.167Z,1.70
2018-12-16T06:38:32.632Z,1.60
2018-12-16T06:48:35.123Z,1.70
2018-12-16T06:58:37.578Z,1.70
2018-12-16T07:08:40.052Z,1.80
2018-12-16T07:18:42.523Z,1.80
2018-12-16T07:28:44.983Z,1.90
2018-12-16T07:38:47.548Z,2.00
2018-12-16T07:48:50.043Z,2.00
2018-12-16T07:58:52.498Z,2.00
2018-12-16T08:08:55.051Z,2.10
2018-12-16T08:18:57.503Z,2.00
2018-12-16T08:28:59.984Z,2.00
2018-12-16T08:39:03.467Z,2.10
2018-12-16T08:49:05.967Z,2.20
2018-12-16T08:59:08.431Z,2.20
2018-12-16T09:09:11.126Z,2.10
2018-12-16T09:19:13.628Z,2.10
2018-12-16T09:29:16.091Z,2.30
2018-12-16T09:39:18.554Z,2.30
2018-12-16T09:49:21.016Z,2.30
2018-12-16T09:59:23.663Z,2.30
2018-12-16T10:09:26.472Z,2.40
2018-12-16T10:19:29.140Z,2.40
2018-12-16T10:29:31.874Z,2.40
2018-12-16T10:39:34.331Z,2.40
2018-12-16T10:49:37.010Z,2.50
2018-12-16T10:59:39.598Z,2.60
2018-12-16T11:09:42.075Z,2.70
2018-12-16T11:19:44.594Z,2.90
2018-12-16T11:29:47.087Z,3.00
2018-12-16T11:39:49.744Z,3.20
2018-12-16T11:49:52.201Z,3.10
2018-12-16T11:59:54.897Z,3.10
2018-12-16T12:09:57.375Z,3.10
2018-12-16T12:20:00.684Z,3.10
2018-12-16T12:30:03.788Z,3.10
2018-12-16T12:40:06.906Z,3.20
2018-12-16T12:50:09.536Z,3.30
2018-12-16T13:00:13.272Z,3.20
2018-12-16T13:10:15.739Z,3.30
2018-12-16T13:20:18.207Z,3.40
2018-12-16T13:30:20.877Z,3.40
2018-12-16T13:40:23.341Z,3.30
2018-12-16T13:50:25.839Z,3.20
2018-12-16T14:00:28.308Z,3.40
2018-12-16T14:10:30.789Z,3.30
2018-12-16T14:20:33.259Z,3.40
2018-12-16T14:30:35.780Z,3.30
2018-12-16T14:40:38.251Z,3.20
2018-12-16T14:50:40.703Z,3.10
2018-12-16T15:00:43.172Z,3.20
2018-12-16T15:10:45.675Z,3.20
2018-12-16T15:20:48.175Z,3.20
2018-12-16T15:38:09.564Z,3.30
2018-12-16T15:48:12.143Z,3.40
2018-12-16T15:58:14.608Z,3.40
2018-12-16T16:08:17.155Z,3.40
2018-12-16T16:18:43.795Z,3.40
2018-12-16T16:28:46.259Z,3.40
2018-12-16T16:38:48.728Z,3.40
2018-12-16T16:48:51.197Z,3.30
2018-12-16T16:58:53.667Z,3.30
2018-12-16T17:08:56.135Z,3.30
2018-12-16T17:19:00.157Z,3.20
2018-12-16T17:29:02.779Z,3.20
2018-12-16T17:39:06.859Z,3.30
2018-12-16T17:49:09.427Z,3.40
2018-12-16T17:59:17.826Z,3.30
2018-12-16T18:09:16.532Z,3.50
2018-12-16T18:19:19.156Z,3.40
2018-12-16T18:29:21.650Z,3.50
2018-12-16T18:39:24.312Z,3.50
2018-12-16T18:49:26.784Z,3.50
2018-12-16T18:59:29.469Z,3.50
2018-12-16T19:09:31.936Z,3.60
2018-12-16T19:19:34.639Z,3.50
2018-12-16T19:29:37.107Z,3.50
2018-12-16T19:39:39.567Z,3.50
2018-12-16T19:49:42.032Z,3.40
2018-12-16T19:59:44.511Z,3.50
2018-12-16T20:09:46.968Z,3.60
2018-12-16T20:19:49.428Z,3.60
2018-12-16T20:29:51.899Z,3.60
2018-12-16T20:39:54.366Z,3.70
2018-12-16T20:49:56.827Z,3.70
2018-12-16T20:59:59.295Z,3.70
2018-12-16T21:10:01.791Z,3.70
2018-12-16T21:20:05.963Z,3.80
2018-12-16T21:30:09.143Z,3.80
2018-12-16T21:40:11.607Z,3.90
2018-12-16T21:50:14.080Z,3.90
2018-12-16T22:00:16.554Z,4.00
2018-12-16T22:10:19.021Z,4.00
2018-12-16T22:20:21.475Z,4.00
2018-12-16T22:30:23.996Z,3.90
2018-12-16T22:40:26.905Z,4.00
2018-12-16T22:50:29.376Z,3.90
2018-12-16T23:00:33.805Z,3.90
2018-12-16T23:10:36.329Z,3.80
2018-12-16T23:20:38.859Z,4.00
2018-12-16T23:30:41.364Z,4.00
2018-12-16T23:40:43.827Z,4.10
2018-12-16T23:50:46.287Z,4.10
